Time;durP1;ratioP1;P1;durP2;ratioP2;P2;SDS_P1;SDS_P2;PMS_P1;PMS_P2;Temp;Humidity;BMP_temperature;BMP_pressure;BME280_temperature;BME280_humidity;BME280_pressure;Samples;Min_cycle;Max_cycle;Signal;HPM_P1;HPM_P2
2022/01/22 00:01:51;;;;;;;12.23;6.80;;;;;;;-1.86;63.85;100848.13;5047913;28;20494;-72
2022/01/22 00:04:16;;;;;;;13.38;7.57;;;;;;;-1.67;63.60;100823.44;5050867;28;20388;-71
2022/01/22 00:07:02;;;;;;;14.13;8.35;;;;;;;-1.62;64.19;100835.75;5051576;28;20025;-70
2022/01/22 00:09:35;;;;;;;12.60;6.65;;;;;;;-1.44;63.23;100846.16;5043479;28;20059;-71
2022/01/22 00:12:04;;;;;;;9.82;7.43;;;;;;;-1.55;63.06;100817.25;5031093;28;20103;-72
2022/01/22 00:14:30;;;;;;;14.10;6.47;;;;;;;-1.49;62.96;100824.44;5032370;28;20041;-72
2022/01/22 00:16:59;;;;;;;11.05;7.75;;;;;;;-1.37;63.45;100849.97;5038282;28;20048;-72
2022/01/22 00:20:05;;;;;;;10.75;7.20;;;;;;;-1.18;61.43;100845.00;5050628;28;20033;-72
2022/01/22 00:22:53;;;;;;;14.45;7.68;;;;;;;-1.21;61.65;100841.41;5049609;28;20049;-71
2022/01/22 00:25:22;;;;;;;25.10;8.95;;;;;;;-1.70;62.10;100811.28;5048895;28;20072;-72
2022/01/22 00:28:30;;;;;;;9.93;6.88;;;;;;;-1.23;61.65;100832.72;5042250;28;20029;-72
2022/01/22 00:31:20;;;;;;;12.02;8.32;;;;;;;-1.28;61.12;100837.59;5055162;28;20052;-70
2022/01/22 00:33:53;;;;;;;13.05;7.65;;;;;;;-1.66;61.58;100810.66;5054538;28;20035;-72
2022/01/22 00:36:19;;;;;;;12.05;7.65;;;;;;;-1.43;60.71;100827.34;5050548;28;20041;-71
2022/01/22 00:38:44;;;;;;;12.50;7.80;;;;;;;-1.35;61.07;100825.22;5050175;28;20049;-74
2022/01/22 00:41:11;;;;;;;12.88;7.22;;;;;;;-1.74;62.02;100784.50;5051281;28;20033;-80
2022/01/22 00:43:37;;;;;;;16.02;7.32;;;;;;;-1.42;60.32;100805.97;5047910;28;20120;-72
2022/01/22 00:46:02;;;;;;;16.98;8.60;;;;;;;-1.37;60.37;100811.38;5050419;28;20112;-73
2022/01/22 00:48:28;;;;;;;12.90;7.55;;;;;;;-1.45;61.10;100804.91;5051018;28;20037;-72
2022/01/22 00:50:56;;;;;;;16.70;6.82;;;;;;;-1.68;61.69;100822.56;5050014;28;20500;-73
2022/01/22 00:53:22;;;;;;;11.57;7.70;;;;;;;-1.35;61.66;100826.09;5049737;28;20044;-72
2022/01/22 00:55:47;;;;;;;14.52;7.53;;;;;;;-1.57;61.52;100810.25;5040025;28;20041;-72
2022/01/22 00:58:13;;;;;;;13.63;8.27;;;;;;;-1.56;61.46;100823.22;5033123;28;20497;-71
2022/01/22 01:01:09;;;;;;;8.45;7.03;;;;;;;-1.63;61.73;100833.97;5047631;28;20468;-72
2022/01/22 01:04:11;;;;;;;11.10;8.18;;;;;;;-1.23;61.17;100825.88;5050766;28;20064;-72
2022/01/22 01:06:45;;;;;;;13.25;7.63;;;;;;;-1.93;62.00;100800.59;5050083;28;20057;-72
2022/01/22 01:09:11;;;;;;;16.05;6.28;;;;;;;-1.63;61.54;100815.09;5035222;28;20075;-72
2022/01/22 01:12:00;;;;;;;13.88;9.25;;;;;;;-1.74;61.25;100797.34;5042362;28;20452;-72
2022/01/22 01:34:15;;;;;;;16.77;9.10;;;;;;;-1.85;61.25;100787.28;5045958;28;20075;-73
2022/01/22 01:36:42;;;;;;;14.05;6.82;;;;;;;-1.92;61.44;100789.53;5050769;28;20052;-73
2022/01/22 01:39:11;;;;;;;17.13;7.30;;;;;;;-1.75;60.96;100782.75;5051280;28;20040;-73
2022/01/22 01:44:10;;;;;;;14.43;8.13;;;;;;;-2.26;60.88;100743.03;5048839;28;20036;-73
2022/01/22 01:46:58;;;;;;;13.40;7.60;;;;;;;-2.04;61.26;100772.50;5050388;28;20048;-71
2022/01/22 01:49:29;;;;;;;13.80;6.93;;;;;;;-1.72;60.18;100753.72;5037965;28;20029;-72
2022/01/22 01:51:57;;;;;;;11.45;6.20;;;;;;;-1.91;60.69;100760.41;5039654;28;20029;-75
2022/01/22 01:59:53;;;;;;;11.00;7.97;;;;;;;-1.87;59.94;100756.34;4902304;29;20052;-72
2022/01/22 02:02:46;;;;;;;10.25;7.47;;;;;;;-1.78;60.42;100764.56;4911329;28;20041;-72
2022/01/22 02:05:12;;;;;;;11.93;7.05;;;;;;;-2.00;60.55;100741.03;4910260;29;20047;-73
2022/01/22 02:11:14;;;;;;;17.48;7.75;;;;;;;-1.66;60.66;100748.94;4911531;29;20084;-72
2022/01/22 02:24:50;;;;;;;12.45;6.57;;;;;;;-2.19;61.10;100749.41;4912621;29;20545;-71
2022/01/22 02:27:16;;;;;;;11.75;6.50;;;;;;;-2.48;61.36;100756.34;4908632;29;20088;-73
2022/01/22 02:29:42;;;;;;;9.73;6.22;;;;;;;-2.31;61.73;100751.28;4910892;29;20382;-71
2022/01/22 02:34:58;;;;;;;10.43;7.82;;;;;;;-2.69;61.60;100739.66;4909986;29;20389;-72
2022/01/22 02:37:30;;;;;;;16.58;6.22;;;;;;;-2.65;61.66;100750.19;4924227;28;20388;-72
2022/01/22 02:42:29;;;;;;;11.77;6.30;;;;;;;-2.66;61.83;100745.88;4910891;29;20413;-70
2022/01/22 02:45:03;;;;;;;11.20;6.57;;;;;;;-2.51;62.05;100750.13;4910066;29;20044;-72
2022/01/22 02:47:29;;;;;;;11.10;6.57;;;;;;;-3.24;62.73;100750.13;4910621;29;20123;-72
2022/01/22 02:49:54;;;;;;;12.20;6.38;;;;;;;-2.91;62.52;100761.50;4908524;29;20097;-72
2022/01/22 02:52:20;;;;;;;10.15;6.15;;;;;;;-2.52;62.37;100769.81;4895013;29;20101;-73
2022/01/22 02:54:46;;;;;;;10.45;5.88;;;;;;;-2.89;62.06;100747.09;4912029;29;20028;-76
2022/01/22 02:57:13;;;;;;;10.60;6.28;;;;;;;-2.61;61.36;100759.88;4928581;29;20056;-72
2022/01/22 02:59:40;;;;;;;15.38;7.40;;;;;;;-2.55;61.62;100757.66;4924242;29;20048;-72
2022/01/22 03:02:33;;;;;;;10.18;5.53;;;;;;;-2.33;60.98;100740.91;4929389;28;20130;-72
2022/01/22 03:05:00;;;;;;;11.05;5.40;;;;;;;-2.63;61.67;100727.19;4946857;28;20049;-74
2022/01/22 03:07:25;;;;;;;15.02;7.28;;;;;;;-2.85;62.12;100728.50;4938553;28;20050;-73
2022/01/22 03:10:29;;;;;;;11.15;5.88;;;;;;;-2.47;62.38;100744.38;4934882;28;20036;-73
2022/01/22 03:31:22;;;;;;;11.32;7.47;;;;;;;-2.89;62.33;100731.69;4934983;28;20032;-71
2022/01/22 03:37:26;;;;;;;9.48;6.57;;;;;;;-3.09;62.66;100740.78;4929970;29;20055;-74
2022/01/22 03:40:04;;;;;;;10.13;7.43;;;;;;;-2.95;63.02;100735.56;4935518;28;20036;-73
2022/01/22 03:42:30;;;;;;;12.35;6.72;;;;;;;-3.08;63.11;100731.41;4930152;29;20031;-73
2022/01/22 03:44:55;;;;;;;10.82;6.55;;;;;;;-3.45;63.60;100722.34;4935636;28;20032;-72
2022/01/22 03:47:21;;;;;;;12.93;6.70;;;;;;;-2.94;63.01;100732.22;4932924;28;20103;-72
2022/01/22 03:49:46;;;;;;;13.10;6.82;;;;;;;-3.04;63.74;100716.28;4934970;28;20055;-73
2022/01/22 03:52:12;;;;;;;11.80;7.03;;;;;;;-2.90;62.38;100735.06;4933138;28;20065;-74
2022/01/22 03:54:39;;;;;;;18.40;7.15;;;;;;;-3.14;62.69;100706.25;4935199;29;20027;-72
2022/01/22 03:57:42;;;;;;;14.80;7.22;;;;;;;-2.94;62.35;100730.53;4934212;29;20051;-73
2022/01/22 04:00:27;;;;;;;12.05;5.40;;;;;;;-3.19;62.46;100725.63;4934130;28;20051;-72
2022/01/22 04:05:38;;;;;;;12.23;6.78;;;;;;;-3.06;62.42;100709.28;4933679;29;20499;-72
2022/01/22 04:08:12;;;;;;;10.25;5.90;;;;;;;-3.27;62.08;100727.72;4946184;29;20403;-73
2022/01/22 04:10:38;;;;;;;12.32;7.10;;;;;;;-3.63;62.49;100665.72;4951893;29;20036;-72
2022/01/22 04:13:11;;;;;;;10.90;6.68;;;;;;;-3.33;61.88;100708.50;4931106;28;20024;-73
2022/01/22 04:15:39;;;;;;;11.52;7.28;;;;;;;-3.17;61.09;100726.59;4935870;29;20047;-72
2022/01/22 04:28:56;;;;;;;10.55;6.80;;;;;;;-2.99;60.92;100720.00;4932257;29;20052;-73
2022/01/22 04:31:22;;;;;;;11.50;6.22;;;;;;;-3.10;60.95;100718.47;4932668;28;20053;-76
2022/01/22 04:33:47;;;;;;;26.13;6.70;;;;;;;-2.96;60.18;100714.16;4934355;29;20039;-72
2022/01/22 04:36:13;;;;;;;11.93;5.80;;;;;;;-3.43;60.54;100695.13;4932059;28;20052;-73
2022/01/22 04:38:39;;;;;;;10.57;6.10;;;;;;;-2.99;60.08;100719.13;4933698;29;20071;-73
2022/01/22 04:41:05;;;;;;;9.38;6.00;;;;;;;-3.26;60.51;100697.81;4920530;29;20048;-73
2022/01/22 04:43:33;;;;;;;11.45;6.78;;;;;;;-3.09;60.54;100712.56;4931154;29;20043;-74
2022/01/22 04:46:12;;;;;;;13.13;7.53;;;;;;;-3.32;60.49;100692.34;4933349;29;20489;-73
2022/01/22 04:49:17;;;;;;;14.13;5.90;;;;;;;-3.52;60.52;100689.44;4932301;29;20408;-73
2022/01/22 04:56:57;;;;;;;13.25;6.45;;;;;;;-2.81;60.32;100709.03;4933008;28;20510;-73
2022/01/22 04:59:23;;;;;;;12.32;5.55;;;;;;;-2.62;58.99;100711.00;4929886;29;20051;-72
2022/01/22 05:01:48;;;;;;;13.63;6.32;;;;;;;-2.69;58.30;100711.41;4943772;29;20028;-72
2022/01/22 05:04:14;;;;;;;10.57;6.00;;;;;;;-2.82;59.15;100705.56;4929070;28;20042;-73
2022/01/22 05:06:39;;;;;;;9.30;6.05;;;;;;;-2.79;58.55;100674.06;4932083;29;20035;-73
2022/01/22 05:09:05;;;;;;;7.68;4.97;;;;;;;-2.72;58.83;100704.41;4932934;28;20448;-72
2022/01/22 05:11:30;;;;;;;8.73;4.80;;;;;;;-3.01;58.62;100683.06;4934016;28;20058;-72
2022/01/22 05:14:14;;;;;;;14.80;5.53;;;;;;;-3.34;59.27;100691.34;4934162;29;20058;-72
2022/01/22 05:17:09;;;;;;;10.48;5.57;;;;;;;-3.00;60.14;100707.06;4921663;29;20051;-72
2022/01/22 05:24:49;;;;;;;22.90;6.63;;;;;;;-3.19;61.10;100716.22;4933932;29;20395;-73
2022/01/22 05:38:57;;;;;;;10.73;6.38;;;;;;;-3.17;61.65;100695.81;5071146;28;20618;-72
2022/01/22 05:41:23;;;;;;;14.25;6.13;;;;;;;-3.10;61.45;100703.06;5076155;28;20040;-73
2022/01/22 05:43:49;;;;;;;8.20;5.05;;;;;;;-3.28;61.51;100701.97;5057331;28;20049;-72
2022/01/22 05:46:14;;;;;;;10.90;5.97;;;;;;;-3.45;62.06;100714.66;5063128;28;20032;-72
2022/01/22 05:48:39;;;;;;;11.82;5.88;;;;;;;-3.22;61.06;100720.31;5063874;28;20086;-75
2022/01/22 05:51:06;;;;;;;9.73;6.00;;;;;;;-3.19;61.40;100729.06;5048207;28;20033;-73
2022/01/22 05:53:43;;;;;;;13.73;6.70;;;;;;;-3.34;61.67;100720.47;5047179;28;20087;-74
2022/01/22 06:01:20;;;;;;;11.32;6.07;;;;;;;-3.57;61.66;100703.66;5059386;28;20482;-73
2022/01/22 06:03:46;;;;;;;6.97;5.05;;;;;;;-3.17;61.78;100700.94;5060231;28;20029;-73
2022/01/22 06:06:13;;;;;;;13.88;5.50;;;;;;;-3.05;61.54;100704.22;5061488;28;20090;-72
2022/01/22 06:08:46;;;;;;;8.65;5.45;;;;;;;-3.35;61.61;100716.09;4983564;28;20063;-71
2022/01/22 06:11:12;;;;;;;7.55;4.72;;;;;;;-3.35;60.88;100710.09;4950451;28;20062;-78
2022/01/22 06:13:46;;;;;;;17.05;5.72;;;;;;;-3.50;61.82;100708.38;4984802;28;20480;-73
2022/01/22 06:16:14;;;;;;;14.25;5.85;;;;;;;-3.39;60.80;100711.59;5074888;28;20420;-73
2022/01/22 06:18:40;;;;;;;10.43;5.93;;;;;;;-3.38;61.56;100709.91;5062691;28;20110;-72
2022/01/22 06:21:08;;;;;;;14.50;5.53;;;;;;;-3.55;61.85;100681.56;5064622;28;20051;-71
2022/01/22 06:24:22;;;;;;;9.43;5.30;;;;;;;-3.34;61.52;100707.63;5067051;28;20441;-73
2022/01/22 06:26:48;;;;;;;39.10;7.18;;;;;;;-3.44;61.15;100688.25;5058224;28;20056;-73
2022/01/22 06:29:13;;;;;;;12.88;6.30;;;;;;;-3.03;59.63;100701.75;5056392;28;20072;-73
2022/01/22 06:31:39;;;;;;;18.73;6.28;;;;;;;-3.15;60.16;100688.22;5063546;28;20385;-72
2022/01/22 06:34:31;;;;;;;12.80;5.18;;;;;;;-3.10;59.47;100710.78;5063926;28;20033;-73
2022/01/22 06:36:56;;;;;;;12.23;5.47;;;;;;;-3.18;60.12;100701.75;5054760;28;20120;-73
2022/01/22 06:42:31;;;;;;;10.23;6.43;;;;;;;-3.02;59.86;100713.78;5052923;28;20033;-72
2022/01/22 06:44:58;;;;;;;9.90;6.07;;;;;;;-2.87;59.73;100711.25;5055562;28;20059;-72
2022/01/22 06:47:25;;;;;;;10.25;6.10;;;;;;;-2.82;60.04;100679.03;5056120;28;20121;-72
2022/01/22 06:49:51;;;;;;;26.10;6.47;;;;;;;-3.04;59.67;100685.47;5049299;28;20057;-72
2022/01/22 06:52:17;;;;;;;20.52;5.68;;;;;;;-2.83;59.80;100705.50;5034280;28;20064;-75
2022/01/22 06:54:44;;;;;;;9.18;6.10;;;;;;;-2.83;58.93;100714.09;5041312;28;20028;-72
2022/01/22 06:57:52;;;;;;;7.55;4.57;;;;;;;-2.83;58.71;100721.78;5050500;28;20072;-73
2022/01/22 07:00:36;;;;;;;8.52;5.47;;;;;;;-2.90;58.26;100694.00;5040488;28;20051;-74
2022/01/22 07:03:13;;;;;;;12.25;6.07;;;;;;;-3.03;58.77;100694.06;5036346;28;20040;-74
2022/01/22 07:05:39;;;;;;;14.80;7.72;;;;;;;-2.76;58.51;100695.66;5043461;28;20094;-74
2022/01/22 07:08:07;;;;;;;22.38;7.25;;;;;;;-2.84;58.66;100694.31;5045088;28;20077;-73
2022/01/22 07:10:34;;;;;;;17.55;6.20;;;;;;;-2.90;58.47;100700.78;5037565;28;20159;-73
2022/01/22 07:12:59;;;;;;;11.05;5.68;;;;;;;-2.97;59.13;100700.44;5043494;28;20029;-74
2022/01/22 07:15:30;;;;;;;8.25;4.95;;;;;;;-2.41;58.97;100711.31;5049176;28;20519;-73
2022/01/22 07:17:56;;;;;;;13.63;7.78;;;;;;;-2.34;57.50;100690.31;5043003;28;20394;-74
2022/01/22 07:20:29;;;;;;;13.45;6.95;;;;;;;-2.40;57.82;100684.84;5050090;28;20047;-73
2022/01/22 07:25:24;;;;;;;7.25;4.28;;;;;;;-2.42;58.00;100700.16;5049328;28;20040;-73
2022/01/22 07:27:50;;;;;;;8.82;5.65;;;;;;;-2.86;57.87;100675.38;5036820;28;20044;-73
2022/01/22 07:30:32;;;;;;;10.05;6.35;;;;;;;-2.60;58.45;100704.25;5046789;28;20373;-74
2022/01/22 07:32:58;;;;;;;10.95;6.18;;;;;;;-2.88;58.72;100700.09;5048188;28;20041;-74
2022/01/22 07:35:24;;;;;;;11.63;6.60;;;;;;;-2.81;58.01;100697.09;5057230;28;20041;-73
2022/01/22 07:37:58;;;;;;;17.23;7.05;;;;;;;-2.90;59.17;100703.34;5046355;28;20053;-73
2022/01/22 07:40:24;;;;;;;14.07;6.88;;;;;;;-2.55;58.02;100701.16;5036277;28;20048;-74
2022/01/22 07:42:49;;;;;;;13.90;6.68;;;;;;;-2.35;58.55;100701.38;5050527;28;20392;-75
2022/01/22 07:45:32;;;;;;;22.52;7.68;;;;;;;-2.60;58.45;100693.97;5046489;28;20021;-73
2022/01/22 07:47:58;;;;;;;9.80;6.28;;;;;;;-2.59;58.28;100670.06;5045946;28;20067;-72
2022/01/22 07:50:23;;;;;;;10.77;6.05;;;;;;;-2.24;57.48;100677.19;5048972;28;20439;-72
2022/01/22 07:53:02;;;;;;;12.77;8.30;;;;;;;-2.86;58.14;100656.53;5039736;28;20041;-72
2022/01/22 07:55:31;;;;;;;11.80;6.75;;;;;;;-2.38;57.90;100678.97;5041845;28;20049;-72
2022/01/22 07:57:56;;;;;;;12.48;6.60;;;;;;;-2.53;57.75;100654.97;5052390;28;20033;-74
2022/01/22 08:00:22;;;;;;;11.93;6.63;;;;;;;-2.35;56.86;100639.72;5052111;28;20036;-71
2022/01/22 08:02:48;;;;;;;19.23;8.20;;;;;;;-2.08;56.79;100667.72;5043366;28;20042;-71
2022/01/22 08:05:14;;;;;;;10.95;6.75;;;;;;;-1.85;56.19;100667.31;5040324;28;20055;-74
2022/01/22 08:07:56;;;;;;;17.98;8.23;;;;;;;-2.05;55.77;100670.47;5049063;28;20650;-71
2022/01/22 08:10:22;;;;;;;14.70;9.00;;;;;;;-1.76;55.09;100666.91;5040780;28;20042;-71
2022/01/22 08:12:51;;;;;;;13.73;7.50;;;;;;;-1.91;55.47;100673.00;5030144;28;20035;-72
2022/01/22 08:15:17;;;;;;;14.50;8.63;;;;;;;-1.71;54.92;100656.06;5042357;28;20033;-73
2022/01/22 08:17:44;;;;;;;14.48;7.03;;;;;;;-1.63;54.88;100661.63;5036572;28;20049;-74
2022/01/22 08:20:13;;;;;;;10.85;6.28;;;;;;;-1.66;55.58;100671.75;5036339;28;20041;-74
2022/01/22 08:22:39;;;;;;;19.88;8.30;;;;;;;-1.70;55.01;100649.22;5044032;28;20032;-73
2022/01/22 08:25:05;;;;;;;16.85;7.07;;;;;;;-2.01;55.70;100665.59;5042321;28;20079;-75
2022/01/22 08:29:57;;;;;;;9.60;6.70;;;;;;;-1.91;56.17;100662.69;5033557;28;20037;-74
2022/01/22 08:32:54;;;;;;;19.25;7.30;;;;;;;-1.55;55.90;100675.75;5029854;28;20068;-75
2022/01/22 08:37:58;;;;;;;16.23;7.68;;;;;;;-1.49;56.00;100686.38;5036015;28;20504;-73
2022/01/22 08:40:24;;;;;;;12.95;8.45;;;;;;;-1.76;58.17;100685.78;5041146;28;20046;-73
2022/01/22 08:42:50;;;;;;;15.55;9.32;;;;;;;-1.57;56.13;100669.66;5032047;28;20026;-73
2022/01/22 08:45:16;;;;;;;17.67;10.20;;;;;;;-1.18;56.82;100690.53;5045043;28;20032;-83
2022/01/22 08:47:42;;;;;;;16.70;8.82;;;;;;;-0.92;56.41;100684.13;5050012;28;20048;-71
2022/01/22 08:50:33;;;;;;;15.55;8.55;;;;;;;-0.68;55.29;100679.34;5048908;28;20524;-73
2022/01/22 08:52:59;;;;;;;14.88;8.95;;;;;;;-0.91;55.97;100673.03;5038023;28;20045;-72
2022/01/22 08:55:24;;;;;;;13.55;8.95;;;;;;;-0.56;55.51;100657.53;5031210;28;20045;-72
2022/01/22 08:57:51;;;;;;;15.07;9.13;;;;;;;-0.68;56.12;100661.31;5046752;28;20063;-72
2022/01/22 09:00:54;;;;;;;18.60;12.00;;;;;;;-1.01;56.03;100665.66;5050936;28;20075;-71
2022/01/22 09:10:26;;;;;;;13.85;8.90;;;;;;;-1.01;55.66;100652.75;5033428;28;20131;-73
2022/01/22 09:13:34;;;;;;;15.27;10.00;;;;;;;-0.96;55.57;100648.75;5030772;28;20033;-72
2022/01/22 09:16:00;;;;;;;13.52;8.57;;;;;;;-0.57;55.05;100622.28;5034363;28;20029;-71
2022/01/22 09:18:26;;;;;;;21.33;12.30;;;;;;;-0.36;55.56;100632.72;5035866;28;20028;-73
2022/01/22 09:23:18;;;;;;;20.23;10.38;;;;;;;-0.57;54.64;100614.56;5039908;28;20072;-72
2022/01/22 09:25:45;;;;;;;20.33;11.25;;;;;;;-0.13;54.24;100613.19;5036719;28;20052;-72
2022/01/22 09:28:13;;;;;;;13.73;10.60;;;;;;;-0.10;53.70;100619.34;5051667;28;20037;-73
2022/01/22 09:30:40;;;;;;;15.70;10.43;;;;;;;-0.22;53.59;100613.63;5046854;28;20025;-72
2022/01/22 09:33:07;;;;;;;15.18;7.70;;;;;;;-0.28;53.14;100592.72;5040662;28;20052;-73
2022/01/22 09:35:33;;;;;;;16.27;8.77;;;;;;;-0.51;53.21;100589.97;5035378;28;20439;-70
2022/01/22 09:37:59;;;;;;;14.05;9.82;;;;;;;-0.07;52.21;100595.41;5039231;28;20052;-71
2022/01/22 09:40:27;;;;;;;16.38;8.65;;;;;;;0.03;51.99;100592.44;5037740;28;20029;-72
2022/01/22 09:42:52;;;;;;;20.70;8.38;;;;;;;0.34;51.03;100588.63;5043411;28;20522;-72
2022/01/22 09:45:18;;;;;;;14.95;9.57;;;;;;;0.42;50.08;100600.16;5033811;28;20033;-75
2022/01/22 09:47:48;;;;;;;15.75;9.45;;;;;;;0.36;50.28;100585.31;5039191;28;20495;-72
2022/01/22 09:50:17;;;;;;;13.10;8.07;;;;;;;0.49;50.34;100584.16;5042365;28;20124;-73
2022/01/22 09:52:45;;;;;;;14.68;8.38;;;;;;;0.87;49.03;100577.16;5049320;28;20584;-72
2022/01/22 09:55:11;;;;;;;14.40;8.23;;;;;;;0.99;48.68;100589.69;5039757;28;20040;-73
2022/01/22 09:57:37;;;;;;;15.65;11.13;;;;;;;0.75;48.92;100580.09;5045333;28;20453;-73
2022/01/22 10:00:06;;;;;;;20.38;9.27;;;;;;;0.51;49.64;100577.34;5038120;28;20045;-71
2022/01/22 10:02:40;;;;;;;12.35;9.13;;;;;;;1.05;49.12;100570.16;5033444;28;20042;-73
2022/01/22 10:05:24;;;;;;;16.60;10.40;;;;;;;0.90;48.72;100573.81;5043454;28;20028;-72
2022/01/22 10:07:52;;;;;;;17.50;8.70;;;;;;;0.79;48.68;100570.75;5041008;28;20049;-72
2022/01/22 10:10:21;;;;;;;19.02;10.30;;;;;;;0.96;49.15;100569.78;5049597;28;20523;-73
2022/01/22 10:12:50;;;;;;;16.15;9.20;;;;;;;1.03;46.85;100569.22;5049730;28;20504;-72
2022/01/22 10:15:21;;;;;;;15.00;9.35;;;;;;;0.49;48.19;100562.59;5050446;28;20044;-72
2022/01/22 10:25:11;;;;;;;17.08;8.82;;;;;;;0.72;46.31;100574.78;5037496;28;20040;-71
2022/01/22 10:31:17;;;;;;;16.05;9.15;;;;;;;0.62;46.10;100564.91;5036125;28;20361;-71
2022/01/22 10:33:43;;;;;;;12.05;7.85;;;;;;;0.60;45.76;100557.06;5036116;28;20021;-72
2022/01/22 10:36:14;;;;;;;14.55;7.63;;;;;;;0.80;44.63;100567.38;5034029;28;20390;-71
2022/01/22 10:39:33;;;;;;;10.05;6.93;;;;;;;0.98;44.28;100555.22;5033742;28;20038;-71
2022/01/22 10:41:58;;;;;;;14.35;7.57;;;;;;;1.76;43.06;100557.41;5035081;28;20073;-72
2022/01/22 10:58:07;;;;;;;8.93;5.18;;;;;;;3.68;35.68;100534.50;5055665;28;20048;-72
2022/01/22 11:00:34;;;;;;;8.40;5.25;;;;;;;3.63;35.59;100531.75;5052483;28;20051;-72
2022/01/22 11:03:18;;;;;;;10.45;5.82;;;;;;;3.93;34.52;100542.16;5053064;28;20040;-72
2022/01/22 11:05:43;;;;;;;;;;;;;;;4.07;35.27;100550.31;5051476;28;20057;-71
2022/01/22 11:08:12;;;;;;;11.38;6.00;;;;;;;4.11;35.13;100530.53;5052229;28;19967;-72
2022/01/22 11:10:39;;;;;;;9.50;6.15;;;;;;;4.34;34.34;100542.44;5049494;28;20036;-72
2022/01/22 11:13:44;;;;;;;7.93;5.13;;;;;;;4.42;34.51;100534.84;5053341;28;20059;-72
2022/01/22 11:16:40;;;;;;;9.73;5.15;;;;;;;4.49;33.85;100525.50;5044584;28;20044;-72
2022/01/22 11:23:04;;;;;;;9.32;5.65;;;;;;;5.15;33.46;100517.63;5053034;28;20372;-71
2022/01/22 11:25:30;;;;;;;9.60;5.60;;;;;;;3.94;33.54;100492.00;5035444;28;20042;-72
2022/01/22 11:27:56;;;;;;;8.00;4.93;;;;;;;4.57;33.23;100500.59;5034747;28;20472;-73
2022/01/22 11:30:25;;;;;;;9.90;4.82;;;;;;;4.49;34.38;100497.78;5037843;28;20021;-72
2022/01/22 11:33:11;;;;;;;16.75;6.10;;;;;;;4.13;33.24;100495.97;5034830;28;20484;-72
2022/01/22 11:35:53;;;;;;;9.10;4.55;;;;;;;4.35;32.71;100491.34;5042630;28;20033;-71
2022/01/22 11:38:31;;;;;;;8.57;4.15;;;;;;;4.02;32.83;100481.81;5051203;28;20037;-71
2022/01/22 11:41:15;;;;;;;10.13;6.15;;;;;;;2.75;34.28;100504.78;5039919;28;20049;-72
2022/01/22 11:46:39;;;;;;;12.85;5.13;;;;;;;2.22;34.69;100491.78;5048443;28;20041;-70
2022/01/22 11:49:13;;;;;;;7.20;3.83;;;;;;;2.09;35.21;100489.59;5036213;28;20469;-70
2022/01/22 11:52:12;;;;;;;10.63;3.45;;;;;;;2.60;33.00;100475.78;5048728;28;20021;-72
2022/01/22 11:54:57;;;;;;;12.38;5.75;;;;;;;2.17;34.73;100488.16;5048458;28;20055;-72
2022/01/22 11:57:26;;;;;;;10.45;4.55;;;;;;;2.76;34.28;100483.22;5042834;28;20037;-72
2022/01/22 12:00:13;;;;;;;10.10;3.85;;;;;;;2.85;34.54;100488.69;5050009;28;20049;-72
2022/01/22 12:02:39;;;;;;;7.93;4.57;;;;;;;2.21;33.58;100486.56;5047782;28;20033;-73
2022/01/22 12:05:05;;;;;;;5.70;3.42;;;;;;;1.73;33.47;100479.66;5038153;28;20052;-72
2022/01/22 12:07:35;;;;;;;9.15;3.58;;;;;;;2.14;32.75;100488.06;5044166;28;20162;-72
2022/01/22 12:14:58;;;;;;;10.15;3.95;;;;;;;2.32;33.00;100465.38;5030288;27;20616;-74
2022/01/22 12:18:12;;;;;;;13.43;5.18;;;;;;;2.42;34.12;100476.94;5026417;28;20129;-74
2022/01/22 12:23:17;;;;;;;6.22;3.08;;;;;;;2.18;35.15;100464.03;5011078;28;20121;-70
2022/01/22 12:25:42;;;;;;;6.50;3.00;;;;;;;2.58;34.37;100470.56;5010287;28;20129;-70
2022/01/22 12:35:12;;;;;;;10.13;3.78;;;;;;;2.21;35.01;100471.91;5025712;28;20051;-71
2022/01/22 12:42:10;;;;;;;8.43;4.07;;;;;;;2.41;34.72;100467.41;5013753;28;20184;-75
2022/01/22 12:47:29;;;;;;;7.78;3.42;;;;;;;2.08;34.28;100477.47;5023340;28;20124;-70
2022/01/22 12:50:08;;;;;;;6.80;3.35;;;;;;;1.92;34.31;100473.47;5013020;28;20042;-70
2022/01/22 12:52:34;;;;;;;10.20;2.90;;;;;;;2.06;34.19;100461.00;5023657;28;20038;-70
2022/01/22 12:55:01;;;;;;;11.10;6.28;;;;;;;2.66;32.56;100478.59;5022699;28;20034;-69
2022/01/22 13:24:41;;;;;;;11.60;3.75;;;;;;;2.14;33.35;100466.47;5076215;27;1317447;-72
2022/01/22 13:27:16;;;;;;;9.20;4.15;;;;;;;2.13;33.53;100491.47;5040325;28;20068;-73
2022/01/22 13:30:07;;;;;;;7.95;3.13;;;;;;;2.18;33.01;100491.59;5033103;28;20077;-76
2022/01/22 13:35:52;;;;;;;22.42;11.57;;;;;;;1.71;35.53;100488.19;5063883;28;20072;-73
2022/01/22 13:38:40;;;;;;;13.02;8.35;;;;;;;1.98;34.48;100498.69;5067498;28;20041;-73
2022/01/22 13:50:10;;;;;;;8.10;5.10;;;;;;;2.37;32.44;100490.56;5049199;28;20059;-74
2022/01/22 13:56:37;;;;;;;15.48;7.53;;;;;;;2.74;33.35;100509.09;5065489;28;20538;-76
2022/01/22 13:59:43;;;;;;;6.53;3.33;;;;;;;2.03;35.95;100513.53;5038762;28;20046;-75
2022/01/22 14:05:31;;;;;;;27.85;5.78;;;;;;;2.29;34.94;100508.41;5049926;28;20372;-73
2022/01/22 14:08:06;;;;;;;11.30;5.10;;;;;;;1.78;37.20;100503.13;5047550;28;20089;-75
2022/01/22 14:10:34;;;;;;;11.32;6.50;;;;;;;1.53;37.25;100483.25;5037259;28;20049;-75
2022/01/22 14:19:43;;;;;;;10.45;5.18;;;;;;;1.65;37.39;100515.59;5052632;28;20121;-76
2022/01/22 14:22:08;;;;;;;15.32;7.93;;;;;;;1.57;37.27;100514.44;5056331;28;20021;-75
2022/01/22 14:24:33;;;;;;;16.23;8.88;;;;;;;1.20;38.59;100505.28;5055756;28;20048;-74
2022/01/22 14:30:37;;;;;;;10.68;6.97;;;;;;;1.20;37.69;100509.56;5089807;28;20051;-77
2022/01/22 14:33:03;;;;;;;14.20;6.78;;;;;;;1.31;37.72;100534.13;5089052;28;20110;-77
2022/01/22 14:35:29;;;;;;;17.08;11.50;;;;;;;1.14;38.58;100530.00;5072479;28;20053;-76
2022/01/22 14:44:56;;;;;;;17.55;11.70;;;;;;;1.40;38.50;100526.72;5075018;28;20046;-76
2022/01/22 14:54:10;;;;;;;11.68;6.43;;;;;;;1.22;39.62;100536.34;5066039;28;20227;-73
2022/01/22 14:56:35;;;;;;;11.00;7.68;;;;;;;1.31;40.53;100551.31;5066881;28;20040;-71
2022/01/22 14:59:01;;;;;;;12.57;8.88;;;;;;;1.21;40.70;100538.03;5054915;28;20052;-71
2022/01/22 15:01:26;;;;;;;10.52;8.50;;;;;;;1.20;40.03;100556.09;5056344;28;20472;-72
2022/01/22 15:04:11;;;;;;;11.15;7.18;;;;;;;1.39;39.62;100558.56;5062051;28;20021;-71
2022/01/22 15:06:37;;;;;;;14.32;8.18;;;;;;;1.13;39.14;100546.31;5062519;28;20032;-73
2022/01/22 15:09:05;;;;;;;18.42;10.23;;;;;;;1.03;38.82;100548.53;5057918;28;20120;-71
2022/01/22 15:11:33;;;;;;;11.10;6.85;;;;;;;0.72;39.40;100561.00;5052443;28;20041;-71
2022/01/22 15:14:03;;;;;;;14.48;7.15;;;;;;;0.70;39.60;100586.75;5056146;28;20392;-72
2022/01/22 15:16:37;;;;;;;15.63;7.72;;;;;;;0.52;41.04;100591.16;5059252;28;20041;-73
2022/01/22 15:22:25;;;;;;;20.58;10.75;;;;;;;0.20;44.36;100576.00;5054356;28;20139;-72
2022/01/22 15:24:51;;;;;;;15.60;6.60;;;;;;;0.06;44.82;100586.53;5064708;28;20096;-72
2022/01/22 15:27:19;;;;;;;13.13;8.02;;;;;;;0.01;45.51;100593.19;5061842;28;20115;-72
2022/01/22 15:29:57;;;;;;;9.73;6.60;;;;;;;-0.10;47.25;100605.59;5056995;28;20044;-72
2022/01/22 15:35:06;;;;;;;16.58;7.18;;;;;;;-0.15;46.76;100587.31;5060649;28;20060;-80
2022/01/22 15:37:33;;;;;;;7.40;5.63;;;;;;;0.16;45.48;100617.06;5065243;28;20530;-73
2022/01/22 15:39:58;;;;;;;22.08;11.52;;;;;;;0.07;45.24;100615.00;5060594;28;20472;-76
2022/01/22 15:42:24;;;;;;;13.65;7.63;;;;;;;0.04;45.83;100627.72;5067234;28;20054;-82
2022/01/22 15:44:49;;;;;;;16.65;8.48;;;;;;;0.06;46.45;100638.13;5059946;28;20457;-71
2022/01/22 15:47:15;;;;;;;15.02;8.43;;;;;;;0.16;46.63;100640.28;5066023;28;20036;-72
2022/01/22 15:49:43;;;;;;;11.60;6.88;;;;;;;-0.12;47.31;100640.72;5057061;28;20082;-72
2022/01/22 15:52:10;;;;;;;17.75;9.43;;;;;;;-0.09;46.67;100644.34;5066222;28;20408;-73
2022/01/22 15:54:36;;;;;;;18.08;10.30;;;;;;;-0.13;47.10;100628.66;5066712;28;21045;-72
2022/01/22 15:57:04;;;;;;;10.82;7.40;;;;;;;0.11;46.43;100636.63;5068097;28;20120;-72
2022/01/22 15:59:30;;;;;;;16.15;10.02;;;;;;;0.09;46.46;100652.03;5065685;28;20040;-73
2022/01/22 16:01:55;;;;;;;19.73;11.32;;;;;;;-0.16;46.77;100634.56;5065355;28;20059;-73
2022/01/22 16:04:21;;;;;;;17.35;11.43;;;;;;;-0.05;47.41;100648.84;5064945;28;20052;-71